Terminal Aerodrome Forecast
Issued by NWS Springfield, MO

Home | Current Version | Previous Version | Text Only | Print | Product List | Glossary On
Versions: 1 2 3 4 5 6 7 8 9 10 11 12 13 14 15 16 17 18 19 20 21 22 23 24 25 26 27
099
FTUS43 KSGF 220535 AAA
TAFSGF
TAF AMD
KSGF 220535Z 2206/2306 30020G30KT 5SM -TSRA BKN025CB OVC050
      WS020/18045KT
      TEMPO 2206/2208 28025G35KT 2SM +TSRA BR OVC020CB
     FM220800 32013KT 5SM -SHRA BR VCTS OVC010CB
     FM221100 32013KT P6SM OVC008
     FM221500 33013G21KT P6SM BKN015
     FM221700 34012G22KT P6SM SCT040
     FM222300 34005KT P6SM SKC=

USA.gov is the U.S. government's official web portal to all federal, state and local government web resources and services.